Terminal Aerodrome Forecast
Issued by NWS Binghamton, NY

Home | Current Version | Previous Version | Text Only | Print | Product List | Glossary On
Versions: 1 2 3 4 5 6 7 8 9 10 11 12 13 14 15 16 17 18 19 20 21 22 23 24 25 26 27 28
000
FTUS41 KBGM 280540
TAFBGM
TAF
KBGM 280540Z 2806/2906 16004KT P6SM OVC040
     FM280800 VRB03KT P6SM OVC030
     FM281000 VRB03KT 5SM BR OVC015
      TEMPO 2811/2815 3SM -SHRA BR OVC008
     FM281500 00000KT 2SM -SHRA BR OVC008
     FM282200 35005KT 5SM -SHRA BR OVC008=

USA.gov is the U.S. government's official web portal to all federal, state and local government web resources and services.